sensor_id;sensor_type;location;lat;lon;timestamp;P1;P2;P0
50866;PMS7003;36839;51.946;21.002;2023-07-22T00:01:25;12.50;12.50;9.50
50866;PMS7003;36839;51.946;21.002;2023-07-22T00:04:02;16.00;16.00;13.00
50866;PMS7003;36839;51.946;21.002;2023-07-22T00:06:31;16.50;16.00;12.50
50866;PMS7003;36839;51.946;21.002;2023-07-22T00:08:58;17.33;17.33;12.33
50866;PMS7003;36839;51.946;21.002;2023-07-22T00:11:27;16.00;16.00;12.00
50866;PMS7003;36839;51.946;21.002;2023-07-22T00:13:53;18.00;16.00;12.00
50866;PMS7003;36839;51.946;21.002;2023-07-22T00:16:21;20.00;19.00;15.50
50866;PMS7003;36839;51.946;21.002;2023-07-22T00:18:50;19.00;19.00;15.50
50866;PMS7003;36839;51.946;21.002;2023-07-22T00:21:17;15.00;14.00;11.00
50866;PMS7003;36839;51.946;21.002;2023-07-22T00:23:45;16.00;15.00;11.00
50866;PMS7003;36839;51.946;21.002;2023-07-22T00:26:15;16.00;13.50;10.50
50866;PMS7003;36839;51.946;21.002;2023-07-22T00:28:51;15.67;14.00;10.33
50866;PMS7003;36839;51.946;21.002;2023-07-22T00:31:20;17.50;16.00;14.00
50866;PMS7003;36839;51.946;21.002;2023-07-22T00:33:49;18.00;17.00;15.00
50866;PMS7003;36839;51.946;21.002;2023-07-22T00:36:17;17.00;16.00;12.00
50866;PMS7003;36839;51.946;21.002;2023-07-22T00:38:44;15.50;12.00;10.50
50866;PMS7003;36839;51.946;21.002;2023-07-22T00:41:20;13.00;11.00;9.00
50866;PMS7003;36839;51.946;21.002;2023-07-22T00:43:47;19.00;17.00;13.00
50866;PMS7003;36839;51.946;21.002;2023-07-22T00:46:15;9.50;9.50;7.50
50866;PMS7003;36839;51.946;21.002;2023-07-22T00:48:46;16.50;15.50;12.00
50866;PMS7003;36839;51.946;21.002;2023-07-22T00:51:19;18.00;17.00;14.00
50866;PMS7003;36839;51.946;21.002;2023-07-22T00:53:54;16.00;16.00;10.00
50866;PMS7003;36839;51.946;21.002;2023-07-22T00:56:23;16.00;15.00;12.00
50866;PMS7003;36839;51.946;21.002;2023-07-22T00:58:51;13.00;13.00;11.00
50866;PMS7003;36839;51.946;21.002;2023-07-22T01:01:29;13.00;13.00;11.50
50866;PMS7003;36839;51.946;21.002;2023-07-22T01:03:58;15.50;14.50;11.50
50866;PMS7003;36839;51.946;21.002;2023-07-22T01:06:28;16.00;14.00;11.00
50866;PMS7003;36839;51.946;21.002;2023-07-22T01:08:59;13.00;13.00;9.00
50866;PMS7003;36839;51.946;21.002;2023-07-22T01:11:28;18.00;18.00;13.00
50866;PMS7003;36839;51.946;21.002;2023-07-22T01:14:00;17.50;16.50;12.00
50866;PMS7003;36839;51.946;21.002;2023-07-22T01:16:28;20.00;15.00;13.00
50866;PMS7003;36839;51.946;21.002;2023-07-22T01:18:57;17.67;17.67;14.67
50866;PMS7003;36839;51.946;21.002;2023-07-22T01:21:28;17.00;17.00;14.00
50866;PMS7003;36839;51.946;21.002;2023-07-22T01:23:56;16.00;16.00;13.00
50866;PMS7003;36839;51.946;21.002;2023-07-22T01:26:25;21.00;21.00;16.50
50866;PMS7003;36839;51.946;21.002;2023-07-22T01:29:06;21.00;18.00;14.00
50866;PMS7003;36839;51.946;21.002;2023-07-22T01:31:38;19.00;19.00;15.50
50866;PMS7003;36839;51.946;21.002;2023-07-22T01:34:14;16.00;16.00;11.00
50866;PMS7003;36839;51.946;21.002;2023-07-22T01:36:41;17.00;12.00;10.00
50866;PMS7003;36839;51.946;21.002;2023-07-22T01:39:10;20.00;19.00;13.00
50866;PMS7003;36839;51.946;21.002;2023-07-22T01:41:44;14.00;14.00;9.50
50866;PMS7003;36839;51.946;21.002;2023-07-22T01:44:15;24.50;20.50;17.00
50866;PMS7003;36839;51.946;21.002;2023-07-22T01:46:43;18.50;17.50;14.00
50866;PMS7003;36839;51.946;21.002;2023-07-22T01:49:12;26.00;26.00;17.50
50866;PMS7003;36839;51.946;21.002;2023-07-22T01:51:40;21.50;19.50;15.50
50866;PMS7003;36839;51.946;21.002;2023-07-22T01:54:09;19.00;16.00;11.00
50866;PMS7003;36839;51.946;21.002;2023-07-22T01:56:36;27.00;21.00;17.00
50866;PMS7003;36839;51.946;21.002;2023-07-22T01:59:05;25.00;21.00;16.00
50866;PMS7003;36839;51.946;21.002;2023-07-22T02:01:33;20.50;17.00;13.00
50866;PMS7003;36839;51.946;21.002;2023-07-22T02:04:07;15.00;15.00;11.00
50866;PMS7003;36839;51.946;21.002;2023-07-22T02:06:34;21.00;20.50;16.00
50866;PMS7003;36839;51.946;21.002;2023-07-22T02:09:02;18.00;17.00;15.00
50866;PMS7003;36839;51.946;21.002;2023-07-22T02:11:39;19.50;19.50;14.00
50866;PMS7003;36839;51.946;21.002;2023-07-22T02:14:06;20.50;17.50;15.00
50866;PMS7003;36839;51.946;21.002;2023-07-22T02:16:36;19.00;19.00;14.50
50866;PMS7003;36839;51.946;21.002;2023-07-22T02:19:03;14.00;13.00;12.00
50866;PMS7003;36839;51.946;21.002;2023-07-22T02:21:31;18.00;17.67;14.67
50866;PMS7003;36839;51.946;21.002;2023-07-22T02:24:00;14.50;11.00;9.00
50866;PMS7003;36839;51.946;21.002;2023-07-22T02:26:28;19.00;17.00;15.00
50866;PMS7003;36839;51.946;21.002;2023-07-22T02:28:56;18.00;17.00;13.00
50866;PMS7003;36839;51.946;21.002;2023-07-22T02:31:24;12.00;12.00;8.50
50866;PMS7003;36839;51.946;21.002;2023-07-22T02:33:56;13.00;13.00;10.00
50866;PMS7003;36839;51.946;21.002;2023-07-22T02:36:25;16.50;14.50;12.50
50866;PMS7003;36839;51.946;21.002;2023-07-22T02:38:52;19.50;18.00;14.00
50866;PMS7003;36839;51.946;21.002;2023-07-22T02:41:21;17.50;14.50;11.00
50866;PMS7003;36839;51.946;21.002;2023-07-22T02:43:48;18.00;16.00;13.00
50866;PMS7003;36839;51.946;21.002;2023-07-22T02:46:15;19.00;17.00;13.00
50866;PMS7003;36839;51.946;21.002;2023-07-22T02:48:47;14.00;13.00;9.00
50866;PMS7003;36839;51.946;21.002;2023-07-22T02:51:16;14.00;13.00;10.00
50866;PMS7003;36839;51.946;21.002;2023-07-22T02:53:45;18.00;18.00;15.50
50866;PMS7003;36839;51.946;21.002;2023-07-22T02:56:13;28.00;25.00;16.00
50866;PMS7003;36839;51.946;21.002;2023-07-22T02:58:44;19.50;19.00;14.50
50866;PMS7003;36839;51.946;21.002;2023-07-22T03:01:15;20.00;19.00;15.00
50866;PMS7003;36839;51.946;21.002;2023-07-22T03:03:42;25.67;23.00;17.67
50866;PMS7003;36839;51.946;21.002;2023-07-22T03:06:09;14.00;13.00;12.00
50866;PMS7003;36839;51.946;21.002;2023-07-22T03:08:46;22.00;22.00;17.00
50866;PMS7003;36839;51.946;21.002;2023-07-22T03:11:17;19.00;18.00;14.00
50866;PMS7003;36839;51.946;21.002;2023-07-22T03:13:53;20.00;14.00;13.00
50866;PMS7003;36839;51.946;21.002;2023-07-22T03:16:22;20.00;19.00;15.00
50866;PMS7003;36839;51.946;21.002;2023-07-22T03:18:52;19.50;17.50;13.00
50866;PMS7003;36839;51.946;21.002;2023-07-22T03:21:22;22.00;20.00;16.00
50866;PMS7003;36839;51.946;21.002;2023-07-22T03:23:52;22.50;22.50;16.50
50866;PMS7003;36839;51.946;21.002;2023-07-22T03:26:26;21.00;21.00;18.00
50866;PMS7003;36839;51.946;21.002;2023-07-22T03:28:54;24.00;21.00;16.00
50866;PMS7003;36839;51.946;21.002;2023-07-22T03:31:21;25.00;20.00;15.00
50866;PMS7003;36839;51.946;21.002;2023-07-22T03:33:49;22.50;22.00;16.50
50866;PMS7003;36839;51.946;21.002;2023-07-22T03:36:17;30.00;26.00;18.00
50866;PMS7003;36839;51.946;21.002;2023-07-22T03:38:44;22.00;19.00;15.00
50866;PMS7003;36839;51.946;21.002;2023-07-22T03:41:12;20.00;17.50;15.00
50866;PMS7003;36839;51.946;21.002;2023-07-22T03:43:39;5.00;5.00;1.00
50866;PMS7003;36839;51.946;21.002;2023-07-22T03:46:12;30.00;27.00;18.00
50866;PMS7003;36839;51.946;21.002;2023-07-22T03:48:38;21.00;21.00;15.00
50866;PMS7003;36839;51.946;21.002;2023-07-22T03:51:07;27.00;23.50;17.50
50866;PMS7003;36839;51.946;21.002;2023-07-22T03:53:34;28.50;27.00;19.50
50866;PMS7003;36839;51.946;21.002;2023-07-22T03:56:02;27.00;23.00;18.00
50866;PMS7003;36839;51.946;21.002;2023-07-22T03:58:30;24.00;23.00;18.00
50866;PMS7003;36839;51.946;21.002;2023-07-22T04:00:59;23.00;21.00;16.00
50866;PMS7003;36839;51.946;21.002;2023-07-22T04:03:40;21.00;20.33;15.33
50866;PMS7003;36839;51.946;21.002;2023-07-22T04:06:07;18.00;15.00;12.50
50866;PMS7003;36839;51.946;21.002;2023-07-22T04:08:36;21.00;21.00;16.00
50866;PMS7003;36839;51.946;21.002;2023-07-22T04:11:06;25.50;24.00;17.50
50866;PMS7003;36839;51.946;21.002;2023-07-22T04:13:33;30.00;24.00;18.50
50866;PMS7003;36839;51.946;21.002;2023-07-22T04:16:04;27.00;26.00;20.00
50866;PMS7003;36839;51.946;21.002;2023-07-22T04:18:35;23.00;23.00;17.50
50866;PMS7003;36839;51.946;21.002;2023-07-22T04:21:03;25.00;24.00;17.00
50866;PMS7003;36839;51.946;21.002;2023-07-22T04:23:30;24.00;23.00;17.00
50866;PMS7003;36839;51.946;21.002;2023-07-22T04:26:02;31.00;28.00;19.00
50866;PMS7003;36839;51.946;21.002;2023-07-22T04:28:34;25.50;22.50;15.50
50866;PMS7003;36839;51.946;21.002;2023-07-22T04:31:02;24.50;24.50;19.00
50866;PMS7003;36839;51.946;21.002;2023-07-22T04:33:30;23.00;22.50;18.50
50866;PMS7003;36839;51.946;21.002;2023-07-22T04:35:59;20.00;19.00;15.00
50866;PMS7003;36839;51.946;21.002;2023-07-22T04:38:27;17.00;15.00;11.00
50866;PMS7003;36839;51.946;21.002;2023-07-22T04:40:54;19.00;18.50;15.00
50866;PMS7003;36839;51.946;21.002;2023-07-22T04:43:26;17.00;16.00;13.00
50866;PMS7003;36839;51.946;21.002;2023-07-22T04:45:54;24.00;20.00;16.00
50866;PMS7003;36839;51.946;21.002;2023-07-22T04:48:22;19.00;17.00;13.00
50866;PMS7003;36839;51.946;21.002;2023-07-22T04:50:50;17.50;17.50;15.00
50866;PMS7003;36839;51.946;21.002;2023-07-22T04:53:20;17.00;17.00;14.50
50866;PMS7003;36839;51.946;21.002;2023-07-22T04:55:58;18.00;18.00;15.00
50866;PMS7003;36839;51.946;21.002;2023-07-22T04:58:35;16.50;16.50;13.00
50866;PMS7003;36839;51.946;21.002;2023-07-22T05:01:04;15.33;14.33;10.33
50866;PMS7003;36839;51.946;21.002;2023-07-22T05:03:34;18.00;18.00;14.00
50866;PMS7003;36839;51.946;21.002;2023-07-22T05:06:02;18.50;17.50;13.00
50866;PMS7003;36839;51.946;21.002;2023-07-22T05:08:30;20.00;20.00;16.00
50866;PMS7003;36839;51.946;21.002;2023-07-22T05:10:58;23.00;20.00;16.00
50866;PMS7003;36839;51.946;21.002;2023-07-22T05:13:28;32.00;27.00;18.00
50866;PMS7003;36839;51.946;21.002;2023-07-22T05:16:05;23.67;23.67;17.67
50866;PMS7003;36839;51.946;21.002;2023-07-22T05:18:35;23.00;20.00;17.00
50866;PMS7003;36839;51.946;21.002;2023-07-22T05:21:04;21.00;19.50;15.50
50866;PMS7003;36839;51.946;21.002;2023-07-22T05:23:33;13.00;13.00;8.33
50866;PMS7003;36839;51.946;21.002;2023-07-22T05:26:02;24.00;24.00;19.00
50866;PMS7003;36839;51.946;21.002;2023-07-22T05:28:30;20.00;18.50;12.00
50866;PMS7003;36839;51.946;21.002;2023-07-22T05:30:57;20.67;19.67;15.33
50866;PMS7003;36839;51.946;21.002;2023-07-22T05:33:26;0.00;0.00;0.00
50866;PMS7003;36839;51.946;21.002;2023-07-22T05:35:54;0.00;0.00;0.00
50866;PMS7003;36839;51.946;21.002;2023-07-22T05:38:22;0.00;0.00;0.00
50866;PMS7003;36839;51.946;21.002;2023-07-22T05:40:51;20.00;17.00;11.00
50866;PMS7003;36839;51.946;21.002;2023-07-22T05:43:20;16.50;16.50;13.00
50866;PMS7003;36839;51.946;21.002;2023-07-22T05:45:54;20.00;19.00;12.00
50866;PMS7003;36839;51.946;21.002;2023-07-22T05:48:22;19.00;19.00;14.00
50866;PMS7003;36839;51.946;21.002;2023-07-22T05:51:03;23.00;21.50;15.50
50866;PMS7003;36839;51.946;21.002;2023-07-22T05:53:32;0.00;0.00;0.00
50866;PMS7003;36839;51.946;21.002;2023-07-22T05:56:02;0.00;0.00;0.00
50866;PMS7003;36839;51.946;21.002;2023-07-22T05:58:34;14.00;12.50;8.50
50866;PMS7003;36839;51.946;21.002;2023-07-22T06:01:02;18.67;17.67;14.00
50866;PMS7003;36839;51.946;21.002;2023-07-22T06:03:34;23.50;18.50;14.00
50866;PMS7003;36839;51.946;21.002;2023-07-22T06:06:14;16.33;16.33;11.67
50866;PMS7003;36839;51.946;21.002;2023-07-22T06:08:42;18.00;17.00;12.50
50866;PMS7003;36839;51.946;21.002;2023-07-22T06:11:09;14.50;14.50;10.50
50866;PMS7003;36839;51.946;21.002;2023-07-22T06:13:39;15.67;15.67;11.33
50866;PMS7003;36839;51.946;21.002;2023-07-22T06:16:15;11.00;11.00;10.00
50866;PMS7003;36839;51.946;21.002;2023-07-22T06:18:43;10.00;9.00;7.50
50866;PMS7003;36839;51.946;21.002;2023-07-22T06:21:14;7.50;5.50;4.00
50866;PMS7003;36839;51.946;21.002;2023-07-22T06:23:42;10.00;10.00;8.50
50866;PMS7003;36839;51.946;21.002;2023-07-22T06:26:13;11.00;9.00;8.00
50866;PMS7003;36839;51.946;21.002;2023-07-22T06:28:41;12.00;11.00;9.00
50866;PMS7003;36839;51.946;21.002;2023-07-22T06:31:10;9.50;9.50;8.00
50866;PMS7003;36839;51.946;21.002;2023-07-22T06:33:38;8.00;8.00;7.00
50866;PMS7003;36839;51.946;21.002;2023-07-22T06:36:05;10.00;7.50;7.00
50866;PMS7003;36839;51.946;21.002;2023-07-22T06:38:33;8.00;7.00;6.00
50866;PMS7003;36839;51.946;21.002;2023-07-22T06:41:00;8.00;8.00;6.00
50866;PMS7003;36839;51.946;21.002;2023-07-22T06:43:27;7.50;6.00;5.00
50866;PMS7003;36839;51.946;21.002;2023-07-22T06:45:56;6.50;5.50;4.50
50866;PMS7003;36839;51.946;21.002;2023-07-22T06:48:27;8.00;8.00;6.00
50866;PMS7003;36839;51.946;21.002;2023-07-22T06:51:06;8.50;8.00;6.00
50866;PMS7003;36839;51.946;21.002;2023-07-22T06:53:36;10.00;7.00;6.00
50866;PMS7003;36839;51.946;21.002;2023-07-22T06:56:06;10.00;7.33;6.00
50866;PMS7003;36839;51.946;21.002;2023-07-22T06:58:34;8.00;6.00;6.00
50866;PMS7003;36839;51.946;21.002;2023-07-22T07:01:01;7.00;7.00;6.00
50866;PMS7003;36839;51.946;21.002;2023-07-22T07:03:29;5.50;5.50;5.00
50866;PMS7003;36839;51.946;21.002;2023-07-22T07:05:58;10.00;7.00;6.00
50866;PMS7003;36839;51.946;21.002;2023-07-22T07:08:25;6.00;6.00;5.00
50866;PMS7003;36839;51.946;21.002;2023-07-22T07:10:58;7.00;7.00;6.00
50866;PMS7003;36839;51.946;21.002;2023-07-22T07:13:30;6.50;6.50;6.00
50866;PMS7003;36839;51.946;21.002;2023-07-22T07:15:58;8.00;8.00;6.00
50866;PMS7003;36839;51.946;21.002;2023-07-22T07:18:54;8.00;8.00;6.00
50866;PMS7003;36839;51.946;21.002;2023-07-22T07:21:23;9.50;6.00;5.50
50866;PMS7003;36839;51.946;21.002;2023-07-22T07:23:52;7.00;7.00;5.33
50866;PMS7003;36839;51.946;21.002;2023-07-22T07:26:21;5.00;5.00;4.00
50866;PMS7003;36839;51.946;21.002;2023-07-22T07:28:50;7.00;7.00;6.00
50866;PMS7003;36839;51.946;21.002;2023-07-22T07:31:18;6.00;6.00;5.00
50866;PMS7003;36839;51.946;21.002;2023-07-22T07:33:48;8.00;8.00;6.00
50866;PMS7003;36839;51.946;21.002;2023-07-22T07:36:16;6.00;6.00;5.00
50866;PMS7003;36839;51.946;21.002;2023-07-22T07:38:43;7.00;7.00;5.00
50866;PMS7003;36839;51.946;21.002;2023-07-22T07:41:11;7.00;6.00;5.00
50866;PMS7003;36839;51.946;21.002;2023-07-22T07:43:39;7.00;7.00;6.00
50866;PMS7003;36839;51.946;21.002;2023-07-22T07:46:19;7.00;7.00;5.00
50866;PMS7003;36839;51.946;21.002;2023-07-22T07:51:44;7.50;6.00;5.50
50866;PMS7003;36839;51.946;21.002;2023-07-22T07:54:13;7.00;7.00;5.50
50866;PMS7003;36839;51.946;21.002;2023-07-22T07:56:45;8.00;8.00;6.00
50866;PMS7003;36839;51.946;21.002;2023-07-22T07:59:20;10.50;9.50;6.50
50866;PMS7003;36839;51.946;21.002;2023-07-22T08:01:50;6.00;6.00;5.00
50866;PMS7003;36839;51.946;21.002;2023-07-22T08:04:17;7.00;7.00;6.00
50866;PMS7003;36839;51.946;21.002;2023-07-22T08:06:56;9.50;8.50;7.00
50866;PMS7003;36839;51.946;21.002;2023-07-22T08:09:24;8.00;6.00;5.50
50866;PMS7003;36839;51.946;21.002;2023-07-22T08:11:51;5.00;5.00;4.00
50866;PMS7003;36839;51.946;21.002;2023-07-22T08:14:34;7.00;7.00;6.00
50866;PMS7003;36839;51.946;21.002;2023-07-22T08:17:16;5.00;5.00;3.00
50866;PMS7003;36839;51.946;21.002;2023-07-22T08:19:43;9.50;6.00;5.50
50866;PMS7003;36839;51.946;21.002;2023-07-22T08:22:13;5.00;5.00;5.00
50866;PMS7003;36839;51.946;21.002;2023-07-22T08:24:40;7.00;7.00;4.00
50866;PMS7003;36839;51.946;21.002;2023-07-22T08:27:17;8.00;8.00;6.00
50866;PMS7003;36839;51.946;21.002;2023-07-22T08:29:49;6.00;6.00;5.00
50866;PMS7003;36839;51.946;21.002;2023-07-22T08:32:16;5.00;5.00;4.00
50866;PMS7003;36839;51.946;21.002;2023-07-22T08:34:44;6.00;6.00;5.00
50866;PMS7003;36839;51.946;21.002;2023-07-22T08:37:13;7.67;7.67;6.33
50866;PMS7003;36839;51.946;21.002;2023-07-22T08:39:40;9.00;9.00;8.00
50866;PMS7003;36839;51.946;21.002;2023-07-22T08:42:09;6.00;6.00;5.00
50866;PMS7003;36839;51.946;21.002;2023-07-22T08:44:42;6.00;6.00;5.00
50866;PMS7003;36839;51.946;21.002;2023-07-22T08:47:20;7.00;7.00;6.00
50866;PMS7003;36839;51.946;21.002;2023-07-22T08:49:55;4.00;4.00;2.00
50866;PMS7003;36839;51.946;21.002;2023-07-22T08:52:28;7.00;7.00;6.00
50866;PMS7003;36839;51.946;21.002;2023-07-22T08:54:58;6.00;5.50;5.00
50866;PMS7003;36839;51.946;21.002;2023-07-22T08:57:34;6.00;6.00;5.00
50866;PMS7003;36839;51.946;21.002;2023-07-22T09:00:02;6.00;6.00;5.00
50866;PMS7003;36839;51.946;21.002;2023-07-22T09:02:33;6.33;6.33;5.33
50866;PMS7003;36839;51.946;21.002;2023-07-22T09:05:02;7.00;7.00;6.00
50866;PMS7003;36839;51.946;21.002;2023-07-22T09:07:29;6.00;6.00;4.50
50866;PMS7003;36839;51.946;21.002;2023-07-22T09:10:00;7.00;7.00;6.00
50866;PMS7003;36839;51.946;21.002;2023-07-22T09:12:33;4.33;4.33;4.00
50866;PMS7003;36839;51.946;21.002;2023-07-22T09:15:14;6.00;6.00;5.00
50866;PMS7003;36839;51.946;21.002;2023-07-22T09:17:52;5.00;5.00;4.00
50866;PMS7003;36839;51.946;21.002;2023-07-22T09:20:26;8.50;4.50;3.50
50866;PMS7003;36839;51.946;21.002;2023-07-22T09:23:00;6.00;6.00;6.00
50866;PMS7003;36839;51.946;21.002;2023-07-22T09:25:36;8.00;6.00;5.50
50866;PMS7003;36839;51.946;21.002;2023-07-22T09:28:03;6.00;6.00;4.00
50866;PMS7003;36839;51.946;21.002;2023-07-22T09:30:38;5.00;5.00;5.00
50866;PMS7003;36839;51.946;21.002;2023-07-22T09:33:21;6.00;5.00;6.00
50866;PMS7003;36839;51.946;21.002;2023-07-22T09:35:52;4.00;4.00;2.00
50866;PMS7003;36839;51.946;21.002;2023-07-22T09:38:23;7.00;6.00;6.00
50866;PMS7003;36839;51.946;21.002;2023-07-22T09:40:51;7.00;4.00;4.00
50866;PMS7003;36839;51.946;21.002;2023-07-22T09:43:21;5.00;5.00;4.00
50866;PMS7003;36839;51.946;21.002;2023-07-22T09:46:10;6.00;5.00;4.00
50866;PMS7003;36839;51.946;21.002;2023-07-22T09:48:41;6.00;6.00;5.00
50866;PMS7003;36839;51.946;21.002;2023-07-22T09:51:15;5.00;5.00;5.00
50866;PMS7003;36839;51.946;21.002;2023-07-22T09:53:44;5.00;4.00;3.00
50866;PMS7003;36839;51.946;21.002;2023-07-22T09:56:12;7.00;6.00;5.00
50866;PMS7003;36839;51.946;21.002;2023-07-22T09:58:51;3.50;3.50;3.00
50866;PMS7003;36839;51.946;21.002;2023-07-22T10:01:22;5.00;5.00;4.00
50866;PMS7003;36839;51.946;21.002;2023-07-22T10:03:53;4.00;4.00;4.00
50866;PMS7003;36839;51.946;21.002;2023-07-22T10:06:26;5.00;5.00;5.00
50866;PMS7003;36839;51.946;21.002;2023-07-22T10:09:04;3.00;3.00;3.00
50866;PMS7003;36839;51.946;21.002;2023-07-22T10:11:35;6.00;4.00;4.00
50866;PMS7003;36839;51.946;21.002;2023-07-22T10:14:05;5.00;5.00;4.00
50866;PMS7003;36839;51.946;21.002;2023-07-22T10:16:42;5.00;5.00;4.00
50866;PMS7003;36839;51.946;21.002;2023-07-22T10:19:09;5.00;5.00;4.00
50866;PMS7003;36839;51.946;21.002;2023-07-22T10:21:46;5.00;5.00;4.00
50866;PMS7003;36839;51.946;21.002;2023-07-22T10:24:15;5.00;4.00;3.00
50866;PMS7003;36839;51.946;21.002;2023-07-22T10:26:46;4.00;4.00;2.00
50866;PMS7003;36839;51.946;21.002;2023-07-22T10:29:19;4.00;4.00;3.00
50866;PMS7003;36839;51.946;21.002;2023-07-22T10:31:48;3.50;3.50;3.50
50866;PMS7003;36839;51.946;21.002;2023-07-22T10:34:21;5.00;2.50;2.00
50866;PMS7003;36839;51.946;21.002;2023-07-22T10:39:32;4.00;4.00;3.00
50866;PMS7003;36839;51.946;21.002;2023-07-22T10:42:25;4.50;4.50;3.00
50866;PMS7003;36839;51.946;21.002;2023-07-22T10:45:00;3.00;3.00;3.00
50866;PMS7003;36839;51.946;21.002;2023-07-22T10:47:32;4.00;4.00;3.50
50866;PMS7003;36839;51.946;21.002;2023-07-22T10:50:06;2.00;2.00;2.00
50866;PMS7003;36839;51.946;21.002;2023-07-22T10:52:42;6.00;4.50;3.50
50866;PMS7003;36839;51.946;21.002;2023-07-22T10:55:17;2.00;2.00;0.00
50866;PMS7003;36839;51.946;21.002;2023-07-22T10:57:53;4.00;4.00;3.00
50866;PMS7003;36839;51.946;21.002;2023-07-22T11:00:23;5.00;5.00;5.00
50866;PMS7003;36839;51.946;21.002;2023-07-22T11:03:09;5.00;5.00;5.00
50866;PMS7003;36839;51.946;21.002;2023-07-22T11:05:47;2.00;2.00;2.00
50866;PMS7003;36839;51.946;21.002;2023-07-22T11:08:39;5.50;5.50;5.00
50866;PMS7003;36839;51.946;21.002;2023-07-22T11:11:08;8.00;6.00;4.00
50866;PMS7003;36839;51.946;21.002;2023-07-22T11:13:41;5.00;5.00;5.00
50866;PMS7003;36839;51.946;21.002;2023-07-22T11:16:35;5.00;5.00;5.00
50866;PMS7003;36839;51.946;21.002;2023-07-22T11:19:25;4.00;4.00;4.00
50866;PMS7003;36839;51.946;21.002;2023-07-22T11:22:18;5.00;5.00;5.00
50866;PMS7003;36839;51.946;21.002;2023-07-22T11:24:47;5.00;5.00;5.00
50866;PMS7003;36839;51.946;21.002;2023-07-22T11:27:14;5.00;4.00;3.50
50866;PMS7003;36839;51.946;21.002;2023-07-22T11:29:59;5.00;5.00;4.00
50866;PMS7003;36839;51.946;21.002;2023-07-22T11:32:42;5.00;5.00;4.00
50866;PMS7003;36839;51.946;21.002;2023-07-22T11:35:13;8.33;6.00;5.00
50866;PMS7003;36839;51.946;21.002;2023-07-22T11:38:02;5.00;5.00;4.00
50866;PMS7003;36839;51.946;21.002;2023-07-22T11:40:35;6.00;6.00;5.00
50866;PMS7003;36839;51.946;21.002;2023-07-22T11:43:05;5.00;5.00;4.00
50866;PMS7003;36839;51.946;21.002;2023-07-22T11:45:32;6.00;6.00;5.50
50866;PMS7003;36839;51.946;21.002;2023-07-22T11:48:01;4.50;4.50;4.00
50866;PMS7003;36839;51.946;21.002;2023-07-22T11:50:48;8.00;6.00;6.00
50866;PMS7003;36839;51.946;21.002;2023-07-22T11:53:16;6.33;6.33;4.33
50866;PMS7003;36839;51.946;21.002;2023-07-22T11:55:51;5.00;5.00;5.00
50866;PMS7003;36839;51.946;21.002;2023-07-22T11:58:26;7.00;7.00;6.00
50866;PMS7003;36839;51.946;21.002;2023-07-22T12:01:05;6.50;6.50;5.00
50866;PMS7003;36839;51.946;21.002;2023-07-22T12:03:35;7.00;7.00;5.67
50866;PMS7003;36839;51.946;21.002;2023-07-22T12:06:05;3.33;2.33;2.00
50866;PMS7003;36839;51.946;21.002;2023-07-22T12:08:34;7.00;7.00;5.50
50866;PMS7003;36839;51.946;21.002;2023-07-22T12:11:03;7.00;7.00;5.00
50866;PMS7003;36839;51.946;21.002;2023-07-22T12:13:37;6.50;6.50;6.00
50866;PMS7003;36839;51.946;21.002;2023-07-22T12:16:06;7.00;7.00;6.00
50866;PMS7003;36839;51.946;21.002;2023-07-22T12:18:46;7.00;7.00;6.00
50866;PMS7003;36839;51.946;21.002;2023-07-22T12:21:16;12.00;8.00;7.00
50866;PMS7003;36839;51.946;21.002;2023-07-22T12:23:45;6.50;6.50;6.50
50866;PMS7003;36839;51.946;21.002;2023-07-22T12:26:16;6.00;6.00;6.00
50866;PMS7003;36839;51.946;21.002;2023-07-22T12:28:52;7.00;7.00;6.00
50866;PMS7003;36839;51.946;21.002;2023-07-22T12:31:23;8.00;5.00;5.00
50866;PMS7003;36839;51.946;21.002;2023-07-22T12:33:52;8.00;6.00;5.00
50866;PMS7003;36839;51.946;21.002;2023-07-22T12:36:21;7.00;6.00;4.50
50866;PMS7003;36839;51.946;21.002;2023-07-22T12:38:55;5.50;5.50;5.00
50866;PMS7003;36839;51.946;21.002;2023-07-22T12:41:25;5.00;5.00;4.50
50866;PMS7003;36839;51.946;21.002;2023-07-22T12:43:55;7.00;6.00;5.00
50866;PMS7003;36839;51.946;21.002;2023-07-22T12:46:24;5.00;5.00;5.00
50866;PMS7003;36839;51.946;21.002;2023-07-22T12:48:53;5.00;5.00;4.00
50866;PMS7003;36839;51.946;21.002;2023-07-22T12:51:32;5.50;5.50;5.00
50866;PMS7003;36839;51.946;21.002;2023-07-22T12:54:08;7.00;7.00;6.00
50866;PMS7003;36839;51.946;21.002;2023-07-22T12:56:35;7.00;6.00;5.00
50866;PMS7003;36839;51.946;21.002;2023-07-22T12:59:02;3.00;2.00;2.00
50866;PMS7003;36839;51.946;21.002;2023-07-22T13:01:30;6.00;6.00;4.00
50866;PMS7003;36839;51.946;21.002;2023-07-22T13:03:59;7.00;7.00;5.00
50866;PMS7003;36839;51.946;21.002;2023-07-22T13:06:49;7.50;6.00;5.50
50866;PMS7003;36839;51.946;21.002;2023-07-22T13:09:20;6.00;6.00;6.00
50866;PMS7003;36839;51.946;21.002;2023-07-22T13:11:47;7.00;6.00;5.00
50866;PMS7003;36839;51.946;21.002;2023-07-22T13:14:17;10.50;8.00;7.00
50866;PMS7003;36839;51.946;21.002;2023-07-22T13:16:46;6.50;6.50;5.50
50866;PMS7003;36839;51.946;21.002;2023-07-22T13:19:14;6.00;6.00;5.00
50866;PMS7003;36839;51.946;21.002;2023-07-22T13:21:41;5.00;5.00;3.00
50866;PMS7003;36839;51.946;21.002;2023-07-22T13:24:08;6.00;6.00;4.50
50866;PMS7003;36839;51.946;21.002;2023-07-22T13:26:35;7.00;7.00;6.00
50866;PMS7003;36839;51.946;21.002;2023-07-22T13:29:05;9.00;7.00;7.00
50866;PMS7003;36839;51.946;21.002;2023-07-22T13:31:41;7.50;7.50;6.50
50866;PMS7003;36839;51.946;21.002;2023-07-22T13:34:09;6.50;6.50;6.00
50866;PMS7003;36839;51.946;21.002;2023-07-22T13:36:36;7.50;6.50;5.00
50866;PMS7003;36839;51.946;21.002;2023-07-22T13:39:04;7.00;7.00;5.00
50866;PMS7003;36839;51.946;21.002;2023-07-22T13:41:42;8.00;6.50;6.50
50866;PMS7003;36839;51.946;21.002;2023-07-22T13:44:10;8.00;8.00;6.50
50866;PMS7003;36839;51.946;21.002;2023-07-22T13:46:37;6.00;6.00;5.00
50866;PMS7003;36839;51.946;21.002;2023-07-22T13:49:06;7.00;7.00;7.00
50866;PMS7003;36839;51.946;21.002;2023-07-22T13:51:34;8.00;6.00;6.00
50866;PMS7003;36839;51.946;21.002;2023-07-22T13:54:12;7.00;7.00;5.00
50866;PMS7003;36839;51.946;21.002;2023-07-22T13:56:41;6.00;6.00;5.00
50866;PMS7003;36839;51.946;21.002;2023-07-22T13:59:11;8.50;7.50;6.00
50866;PMS7003;36839;51.946;21.002;2023-07-22T14:01:40;7.00;7.00;5.00
50866;PMS7003;36839;51.946;21.002;2023-07-22T14:04:11;10.00;6.00;5.00
50866;PMS7003;36839;51.946;21.002;2023-07-22T14:06:38;10.00;8.00;7.00
50866;PMS7003;36839;51.946;21.002;2023-07-22T14:09:07;8.00;7.00;6.00
50866;PMS7003;36839;51.946;21.002;2023-07-22T14:11:35;10.00;8.00;7.00
50866;PMS7003;36839;51.946;21.002;2023-07-22T14:14:03;9.67;6.00;5.00
50866;PMS7003;36839;51.946;21.002;2023-07-22T14:16:32;8.00;8.00;6.00
50866;PMS7003;36839;51.946;21.002;2023-07-22T14:19:01;6.00;6.00;6.00
50866;PMS7003;36839;51.946;21.002;2023-07-22T14:21:32;7.00;7.00;6.00